sensor_id;sensor_type;location;lat;lon;timestamp;temperature;humidity
14934;DHT22;7560;51.364;12.384;2024-03-06T00:04:47;5.70;99.90
14934;DHT22;7560;51.364;12.384;2024-03-06T00:09:49;5.70;99.90
14934;DHT22;7560;51.364;12.384;2024-03-06T00:14:51;5.60;99.90
14934;DHT22;7560;51.364;12.384;2024-03-06T00:19:52;5.40;99.90
14934;DHT22;7560;51.364;12.384;2024-03-06T00:24:54;5.40;99.90
14934;DHT22;7560;51.364;12.384;2024-03-06T00:29:56;5.40;99.90
14934;DHT22;7560;51.364;12.384;2024-03-06T00:34:58;5.40;99.90
14934;DHT22;7560;51.364;12.384;2024-03-06T00:40:00;5.30;99.90
14934;DHT22;7560;51.364;12.384;2024-03-06T00:45:02;5.10;99.90
14934;DHT22;7560;51.364;12.384;2024-03-06T00:50:04;4.90;99.90
14934;DHT22;7560;51.364;12.384;2024-03-06T00:55:09;4.80;99.90
14934;DHT22;7560;51.364;12.384;2024-03-06T01:00:12;4.70;99.90
14934;DHT22;7560;51.364;12.384;2024-03-06T01:05:14;4.60;99.90
14934;DHT22;7560;51.364;12.384;2024-03-06T01:10:16;4.50;99.90
14934;DHT22;7560;51.364;12.384;2024-03-06T01:15:18;4.40;99.90
14934;DHT22;7560;51.364;12.384;2024-03-06T01:20:19;4.40;99.90
14934;DHT22;7560;51.364;12.384;2024-03-06T01:25:22;4.30;99.90
14934;DHT22;7560;51.364;12.384;2024-03-06T01:30:23;4.20;99.90
14934;DHT22;7560;51.364;12.384;2024-03-06T01:35:25;4.20;99.90
14934;DHT22;7560;51.364;12.384;2024-03-06T01:40:27;4.20;99.90
14934;DHT22;7560;51.364;12.384;2024-03-06T01:45:30;4.10;99.90
14934;DHT22;7560;51.364;12.384;2024-03-06T01:50:32;4.00;99.90
14934;DHT22;7560;51.364;12.384;2024-03-06T01:55:34;4.00;99.90
14934;DHT22;7560;51.364;12.384;2024-03-06T02:00:37;3.90;99.90
14934;DHT22;7560;51.364;12.384;2024-03-06T02:05:39;3.90;99.90
14934;DHT22;7560;51.364;12.384;2024-03-06T02:10:41;3.80;99.90
14934;DHT22;7560;51.364;12.384;2024-03-06T02:15:45;3.80;99.90
14934;DHT22;7560;51.364;12.384;2024-03-06T02:20:47;3.80;99.90
14934;DHT22;7560;51.364;12.384;2024-03-06T02:25:51;3.80;99.90
14934;DHT22;7560;51.364;12.384;2024-03-06T02:30:53;3.70;99.90
14934;DHT22;7560;51.364;12.384;2024-03-06T02:35:55;3.60;99.90
14934;DHT22;7560;51.364;12.384;2024-03-06T02:40:56;3.50;99.90
14934;DHT22;7560;51.364;12.384;2024-03-06T02:45:58;3.50;99.90
14934;DHT22;7560;51.364;12.384;2024-03-06T02:51:00;3.40;99.90
14934;DHT22;7560;51.364;12.384;2024-03-06T02:56:02;3.50;99.90
14934;DHT22;7560;51.364;12.384;2024-03-06T03:01:04;3.50;99.90
14934;DHT22;7560;51.364;12.384;2024-03-06T03:06:06;3.50;99.90
14934;DHT22;7560;51.364;12.384;2024-03-06T03:11:07;3.50;99.90
14934;DHT22;7560;51.364;12.384;2024-03-06T03:16:19;3.40;99.90
14934;DHT22;7560;51.364;12.384;2024-03-06T03:21:22;3.30;99.90
14934;DHT22;7560;51.364;12.384;2024-03-06T03:26:23;3.20;99.90
14934;DHT22;7560;51.364;12.384;2024-03-06T03:31:26;3.10;99.90
14934;DHT22;7560;51.364;12.384;2024-03-06T03:36:27;3.10;99.90
14934;DHT22;7560;51.364;12.384;2024-03-06T03:41:29;3.10;99.90
14934;DHT22;7560;51.364;12.384;2024-03-06T03:46:31;3.10;99.90
14934;DHT22;7560;51.364;12.384;2024-03-06T03:51:32;3.10;99.90
14934;DHT22;7560;51.364;12.384;2024-03-06T03:56:34;3.10;99.90
14934;DHT22;7560;51.364;12.384;2024-03-06T04:01:36;3.10;99.90
14934;DHT22;7560;51.364;12.384;2024-03-06T04:06:38;3.10;99.90
14934;DHT22;7560;51.364;12.384;2024-03-06T04:11:40;3.00;99.90
14934;DHT22;7560;51.364;12.384;2024-03-06T04:16:42;3.10;99.90
14934;DHT22;7560;51.364;12.384;2024-03-06T04:21:44;3.00;99.90
14934;DHT22;7560;51.364;12.384;2024-03-06T04:26:45;2.90;99.90
14934;DHT22;7560;51.364;12.384;2024-03-06T04:31:47;2.90;99.90
14934;DHT22;7560;51.364;12.384;2024-03-06T04:36:49;2.80;99.90
14934;DHT22;7560;51.364;12.384;2024-03-06T04:41:51;2.80;99.90
14934;DHT22;7560;51.364;12.384;2024-03-06T04:46:53;2.70;99.90
14934;DHT22;7560;51.364;12.384;2024-03-06T04:51:55;2.70;99.90
14934;DHT22;7560;51.364;12.384;2024-03-06T04:56:56;2.60;99.90
14934;DHT22;7560;51.364;12.384;2024-03-06T05:01:58;2.60;99.90
14934;DHT22;7560;51.364;12.384;2024-03-06T05:07:00;2.50;99.90
14934;DHT22;7560;51.364;12.384;2024-03-06T05:12:19;2.50;99.90
14934;DHT22;7560;51.364;12.384;2024-03-06T05:17:38;2.40;99.90
14934;DHT22;7560;51.364;12.384;2024-03-06T05:22:57;2.30;99.90
14934;DHT22;7560;51.364;12.384;2024-03-06T05:28:16;2.30;99.90
14934;DHT22;7560;51.364;12.384;2024-03-06T05:33:36;2.20;99.90
14934;DHT22;7560;51.364;12.384;2024-03-06T05:38:55;2.20;99.90
14934;DHT22;7560;51.364;12.384;2024-03-06T05:44:14;2.20;99.90
14934;DHT22;7560;51.364;12.384;2024-03-06T05:49:33;2.20;99.90
14934;DHT22;7560;51.364;12.384;2024-03-06T05:54:53;2.10;99.90
14934;DHT22;7560;51.364;12.384;2024-03-06T06:00:13;2.10;99.90
14934;DHT22;7560;51.364;12.384;2024-03-06T06:05:15;2.10;99.90
14934;DHT22;7560;51.364;12.384;2024-03-06T06:10:24;2.10;99.90
14934;DHT22;7560;51.364;12.384;2024-03-06T06:15:26;2.10;99.90
14934;DHT22;7560;51.364;12.384;2024-03-06T06:20:28;2.10;99.90
14934;DHT22;7560;51.364;12.384;2024-03-06T06:25:30;2.20;99.90
14934;DHT22;7560;51.364;12.384;2024-03-06T06:30:32;2.20;99.90
14934;DHT22;7560;51.364;12.384;2024-03-06T06:35:34;2.30;99.90
14934;DHT22;7560;51.364;12.384;2024-03-06T06:40:36;2.30;99.90
14934;DHT22;7560;51.364;12.384;2024-03-06T06:45:38;2.30;99.90
14934;DHT22;7560;51.364;12.384;2024-03-06T06:50:40;2.30;99.90
14934;DHT22;7560;51.364;12.384;2024-03-06T06:55:41;2.40;99.90
14934;DHT22;7560;51.364;12.384;2024-03-06T07:00:43;2.40;99.90
14934;DHT22;7560;51.364;12.384;2024-03-06T07:05:45;2.60;99.90
14934;DHT22;7560;51.364;12.384;2024-03-06T07:10:47;2.60;99.90
14934;DHT22;7560;51.364;12.384;2024-03-06T07:15:48;2.80;99.90
14934;DHT22;7560;51.364;12.384;2024-03-06T07:20:50;2.80;99.90
14934;DHT22;7560;51.364;12.384;2024-03-06T07:25:52;3.00;99.90
14934;DHT22;7560;51.364;12.384;2024-03-06T07:30:54;3.10;99.90
14934;DHT22;7560;51.364;12.384;2024-03-06T07:35:56;3.20;99.90
14934;DHT22;7560;51.364;12.384;2024-03-06T07:40:58;3.30;99.90
14934;DHT22;7560;51.364;12.384;2024-03-06T07:46:00;3.20;99.90
14934;DHT22;7560;51.364;12.384;2024-03-06T07:51:01;3.30;99.90
14934;DHT22;7560;51.364;12.384;2024-03-06T07:56:03;3.40;99.90
14934;DHT22;7560;51.364;12.384;2024-03-06T08:01:06;3.40;99.90
14934;DHT22;7560;51.364;12.384;2024-03-06T08:06:09;3.60;99.90
14934;DHT22;7560;51.364;12.384;2024-03-06T08:11:11;3.70;99.90
14934;DHT22;7560;51.364;12.384;2024-03-06T08:16:13;3.80;99.90
14934;DHT22;7560;51.364;12.384;2024-03-06T08:21:15;3.80;99.90
14934;DHT22;7560;51.364;12.384;2024-03-06T08:26:18;3.90;99.90
14934;DHT22;7560;51.364;12.384;2024-03-06T08:31:20;4.20;99.90
14934;DHT22;7560;51.364;12.384;2024-03-06T08:36:23;4.30;99.90
14934;DHT22;7560;51.364;12.384;2024-03-06T08:41:25;4.40;99.90
14934;DHT22;7560;51.364;12.384;2024-03-06T08:46:27;4.50;99.90
14934;DHT22;7560;51.364;12.384;2024-03-06T08:51:29;4.60;99.90
14934;DHT22;7560;51.364;12.384;2024-03-06T08:56:31;4.70;99.90
14934;DHT22;7560;51.364;12.384;2024-03-06T09:01:33;4.90;99.90
14934;DHT22;7560;51.364;12.384;2024-03-06T09:06:34;5.00;99.90
14934;DHT22;7560;51.364;12.384;2024-03-06T09:11:36;5.00;99.90
14934;DHT22;7560;51.364;12.384;2024-03-06T09:16:38;5.00;99.90
14934;DHT22;7560;51.364;12.384;2024-03-06T09:21:40;5.20;99.90
14934;DHT22;7560;51.364;12.384;2024-03-06T09:26:43;5.40;99.90
14934;DHT22;7560;51.364;12.384;2024-03-06T09:31:45;5.50;99.90
14934;DHT22;7560;51.364;12.384;2024-03-06T09:36:48;5.70;99.90
14934;DHT22;7560;51.364;12.384;2024-03-06T09:41:50;5.90;99.90
14934;DHT22;7560;51.364;12.384;2024-03-06T09:46:52;6.00;99.90
14934;DHT22;7560;51.364;12.384;2024-03-06T09:51:56;6.00;99.90
14934;DHT22;7560;51.364;12.384;2024-03-06T09:57:00;6.20;99.90
14934;DHT22;7560;51.364;12.384;2024-03-06T10:02:08;6.20;99.90
14934;DHT22;7560;51.364;12.384;2024-03-06T10:07:12;6.30;99.90
14934;DHT22;7560;51.364;12.384;2024-03-06T10:12:17;6.40;99.90
14934;DHT22;7560;51.364;12.384;2024-03-06T10:17:21;6.60;99.90
14934;DHT22;7560;51.364;12.384;2024-03-06T10:22:25;6.70;99.90
14934;DHT22;7560;51.364;12.384;2024-03-06T10:27:27;6.80;99.90
14934;DHT22;7560;51.364;12.384;2024-03-06T10:32:30;6.90;99.90
14934;DHT22;7560;51.364;12.384;2024-03-06T10:37:32;7.00;99.90
14934;DHT22;7560;51.364;12.384;2024-03-06T10:42:36;6.90;99.90
14934;DHT22;7560;51.364;12.384;2024-03-06T10:47:40;7.10;99.90
14934;DHT22;7560;51.364;12.384;2024-03-06T10:52:44;7.30;99.90
14934;DHT22;7560;51.364;12.384;2024-03-06T10:57:48;7.50;99.90
14934;DHT22;7560;51.364;12.384;2024-03-06T11:02:51;7.70;99.90
14934;DHT22;7560;51.364;12.384;2024-03-06T11:07:54;7.70;99.90
14934;DHT22;7560;51.364;12.384;2024-03-06T11:12:57;7.90;99.90
14934;DHT22;7560;51.364;12.384;2024-03-06T11:23:31;8.00;99.90
14934;DHT22;7560;51.364;12.384;2024-03-06T11:28:36;7.70;99.90
14934;DHT22;7560;51.364;12.384;2024-03-06T11:33:43;7.60;99.90
14934;DHT22;7560;51.364;12.384;2024-03-06T11:39:05;7.70;99.90
14934;DHT22;7560;51.364;12.384;2024-03-06T11:44:17;8.10;99.90
14934;DHT22;7560;51.364;12.384;2024-03-06T11:49:21;8.60;99.90
14934;DHT22;7560;51.364;12.384;2024-03-06T11:54:24;8.70;99.90
14934;DHT22;7560;51.364;12.384;2024-03-06T11:59:29;8.70;99.90
14934;DHT22;7560;51.364;12.384;2024-03-06T12:04:32;8.90;99.90
14934;DHT22;7560;51.364;12.384;2024-03-06T12:09:41;8.90;99.90
14934;DHT22;7560;51.364;12.384;2024-03-06T12:14:58;8.60;99.90
14934;DHT22;7560;51.364;12.384;2024-03-06T12:20:02;8.50;99.90
14934;DHT22;7560;51.364;12.384;2024-03-06T12:25:04;8.40;99.90
14934;DHT22;7560;51.364;12.384;2024-03-06T12:30:10;8.50;99.90
14934;DHT22;7560;51.364;12.384;2024-03-06T12:35:26;8.30;99.90
14934;DHT22;7560;51.364;12.384;2024-03-06T12:40:28;8.20;99.90
14934;DHT22;7560;51.364;12.384;2024-03-06T12:45:30;8.40;99.90
14934;DHT22;7560;51.364;12.384;2024-03-06T12:50:32;8.60;99.90
14934;DHT22;7560;51.364;12.384;2024-03-06T12:55:34;8.90;99.90
14934;DHT22;7560;51.364;12.384;2024-03-06T13:00:37;8.70;99.90
14934;DHT22;7560;51.364;12.384;2024-03-06T13:05:38;8.50;99.90
14934;DHT22;7560;51.364;12.384;2024-03-06T13:10:41;8.60;99.90
14934;DHT22;7560;51.364;12.384;2024-03-06T13:15:43;8.60;99.90
14934;DHT22;7560;51.364;12.384;2024-03-06T13:20:46;8.60;99.90
14934;DHT22;7560;51.364;12.384;2024-03-06T13:25:48;9.00;99.90
14934;DHT22;7560;51.364;12.384;2024-03-06T13:30:50;9.10;99.90
14934;DHT22;7560;51.364;12.384;2024-03-06T13:35:52;8.70;99.90
14934;DHT22;7560;51.364;12.384;2024-03-06T13:40:55;8.60;99.90
14934;DHT22;7560;51.364;12.384;2024-03-06T13:45:57;9.00;99.90
14934;DHT22;7560;51.364;12.384;2024-03-06T13:50:59;9.00;99.90
14934;DHT22;7560;51.364;12.384;2024-03-06T13:56:01;9.20;99.90
14934;DHT22;7560;51.364;12.384;2024-03-06T14:01:04;9.40;99.90
14934;DHT22;7560;51.364;12.384;2024-03-06T14:06:07;9.50;99.90
14934;DHT22;7560;51.364;12.384;2024-03-06T14:11:11;9.40;99.90
14934;DHT22;7560;51.364;12.384;2024-03-06T14:16:13;9.40;99.90
14934;DHT22;7560;51.364;12.384;2024-03-06T14:21:14;9.40;99.90
14934;DHT22;7560;51.364;12.384;2024-03-06T14:26:16;9.50;99.90
14934;DHT22;7560;51.364;12.384;2024-03-06T14:31:18;9.70;99.90
14934;DHT22;7560;51.364;12.384;2024-03-06T14:36:20;9.60;99.90
14934;DHT22;7560;51.364;12.384;2024-03-06T14:41:26;9.50;99.90
14934;DHT22;7560;51.364;12.384;2024-03-06T14:46:28;9.80;99.90
14934;DHT22;7560;51.364;12.384;2024-03-06T14:51:30;9.90;99.90
14934;DHT22;7560;51.364;12.384;2024-03-06T14:56:32;10.30;99.90
14934;DHT22;7560;51.364;12.384;2024-03-06T15:01:34;9.70;99.90
14934;DHT22;7560;51.364;12.384;2024-03-06T15:06:39;9.20;99.90
14934;DHT22;7560;51.364;12.384;2024-03-06T15:11:41;9.50;99.90
14934;DHT22;7560;51.364;12.384;2024-03-06T15:16:43;10.10;99.90
14934;DHT22;7560;51.364;12.384;2024-03-06T15:21:46;10.30;99.90
14934;DHT22;7560;51.364;12.384;2024-03-06T15:26:47;10.10;99.90
14934;DHT22;7560;51.364;12.384;2024-03-06T15:31:49;10.40;99.90
14934;DHT22;7560;51.364;12.384;2024-03-06T15:36:51;10.50;99.90
14934;DHT22;7560;51.364;12.384;2024-03-06T15:41:57;10.40;99.90
14934;DHT22;7560;51.364;12.384;2024-03-06T15:46:59;9.80;99.90
14934;DHT22;7560;51.364;12.384;2024-03-06T15:52:11;9.50;99.90
14934;DHT22;7560;51.364;12.384;2024-03-06T15:57:13;9.50;99.90
14934;DHT22;7560;51.364;12.384;2024-03-06T16:02:19;9.30;99.90
14934;DHT22;7560;51.364;12.384;2024-03-06T16:07:21;9.30;99.90
14934;DHT22;7560;51.364;12.384;2024-03-06T16:12:23;9.00;99.90
14934;DHT22;7560;51.364;12.384;2024-03-06T16:17:26;9.00;99.90
14934;DHT22;7560;51.364;12.384;2024-03-06T16:22:28;8.80;99.90
14934;DHT22;7560;51.364;12.384;2024-03-06T16:27:30;8.70;99.90
14934;DHT22;7560;51.364;12.384;2024-03-06T16:32:31;8.50;99.90
14934;DHT22;7560;51.364;12.384;2024-03-06T16:37:33;8.30;99.90
14934;DHT22;7560;51.364;12.384;2024-03-06T16:42:36;7.90;99.90
14934;DHT22;7560;51.364;12.384;2024-03-06T16:47:38;7.80;99.90
14934;DHT22;7560;51.364;12.384;2024-03-06T16:52:39;7.70;99.90
14934;DHT22;7560;51.364;12.384;2024-03-06T16:57:43;7.60;99.90
14934;DHT22;7560;51.364;12.384;2024-03-06T17:02:44;7.40;99.90
14934;DHT22;7560;51.364;12.384;2024-03-06T17:07:47;7.30;99.90
14934;DHT22;7560;51.364;12.384;2024-03-06T17:12:49;7.20;99.90
14934;DHT22;7560;51.364;12.384;2024-03-06T17:17:51;7.10;99.90
14934;DHT22;7560;51.364;12.384;2024-03-06T17:22:53;7.10;99.90
14934;DHT22;7560;51.364;12.384;2024-03-06T17:27:57;7.00;99.90
14934;DHT22;7560;51.364;12.384;2024-03-06T17:32:59;7.00;99.90
14934;DHT22;7560;51.364;12.384;2024-03-06T17:38:01;7.10;99.90
14934;DHT22;7560;51.364;12.384;2024-03-06T17:43:03;7.20;99.90
14934;DHT22;7560;51.364;12.384;2024-03-06T17:48:05;7.30;99.90
14934;DHT22;7560;51.364;12.384;2024-03-06T17:53:07;7.40;99.90
14934;DHT22;7560;51.364;12.384;2024-03-06T17:58:11;7.50;99.90
14934;DHT22;7560;51.364;12.384;2024-03-06T18:03:13;7.50;99.90
14934;DHT22;7560;51.364;12.384;2024-03-06T18:08:14;7.60;99.90
14934;DHT22;7560;51.364;12.384;2024-03-06T18:13:16;7.60;99.90
14934;DHT22;7560;51.364;12.384;2024-03-06T18:18:18;7.60;99.90
14934;DHT22;7560;51.364;12.384;2024-03-06T18:23:21;7.60;99.90
14934;DHT22;7560;51.364;12.384;2024-03-06T18:28:23;7.60;99.90
14934;DHT22;7560;51.364;12.384;2024-03-06T18:33:25;7.60;99.90
14934;DHT22;7560;51.364;12.384;2024-03-06T18:38:27;7.50;99.90
14934;DHT22;7560;51.364;12.384;2024-03-06T18:43:28;7.40;99.90
14934;DHT22;7560;51.364;12.384;2024-03-06T18:48:30;7.40;99.90
14934;DHT22;7560;51.364;12.384;2024-03-06T18:53:32;7.40;99.90
14934;DHT22;7560;51.364;12.384;2024-03-06T18:58:34;7.30;99.90
14934;DHT22;7560;51.364;12.384;2024-03-06T19:03:36;7.30;99.90
14934;DHT22;7560;51.364;12.384;2024-03-06T19:08:39;7.40;99.90
14934;DHT22;7560;51.364;12.384;2024-03-06T19:13:41;7.30;99.90
14934;DHT22;7560;51.364;12.384;2024-03-06T19:18:43;7.40;99.90
14934;DHT22;7560;51.364;12.384;2024-03-06T19:23:45;7.30;99.90
14934;DHT22;7560;51.364;12.384;2024-03-06T19:28:46;7.20;99.90
14934;DHT22;7560;51.364;12.384;2024-03-06T19:33:49;7.10;99.90
14934;DHT22;7560;51.364;12.384;2024-03-06T19:38:53;7.10;99.90
14934;DHT22;7560;51.364;12.384;2024-03-06T19:43:54;7.10;99.90
14934;DHT22;7560;51.364;12.384;2024-03-06T19:48:56;7.10;99.90
14934;DHT22;7560;51.364;12.384;2024-03-06T19:53:58;7.00;99.90
14934;DHT22;7560;51.364;12.384;2024-03-06T19:59:01;7.10;99.90
14934;DHT22;7560;51.364;12.384;2024-03-06T20:04:03;7.10;99.90
14934;DHT22;7560;51.364;12.384;2024-03-06T20:09:06;7.00;99.90
14934;DHT22;7560;51.364;12.384;2024-03-06T20:14:09;7.00;99.90
14934;DHT22;7560;51.364;12.384;2024-03-06T20:19:12;7.00;99.90
14934;DHT22;7560;51.364;12.384;2024-03-06T20:24:14;7.00;99.90
14934;DHT22;7560;51.364;12.384;2024-03-06T20:29:26;7.00;99.90
14934;DHT22;7560;51.364;12.384;2024-03-06T20:34:29;7.00;99.90
14934;DHT22;7560;51.364;12.384;2024-03-06T20:39:30;7.20;99.90
14934;DHT22;7560;51.364;12.384;2024-03-06T20:44:32;7.10;99.90
14934;DHT22;7560;51.364;12.384;2024-03-06T20:49:34;7.00;99.90
14934;DHT22;7560;51.364;12.384;2024-03-06T20:54:36;7.00;99.90
14934;DHT22;7560;51.364;12.384;2024-03-06T20:59:38;7.00;99.90
14934;DHT22;7560;51.364;12.384;2024-03-06T21:04:40;7.10;99.90
14934;DHT22;7560;51.364;12.384;2024-03-06T21:09:42;7.10;99.90
14934;DHT22;7560;51.364;12.384;2024-03-06T21:14:44;7.00;99.90
14934;DHT22;7560;51.364;12.384;2024-03-06T21:19:46;7.10;99.90
14934;DHT22;7560;51.364;12.384;2024-03-06T21:24:48;7.20;99.90
14934;DHT22;7560;51.364;12.384;2024-03-06T21:29:50;7.20;99.90
14934;DHT22;7560;51.364;12.384;2024-03-06T21:34:52;7.20;99.90
14934;DHT22;7560;51.364;12.384;2024-03-06T21:39:54;7.10;99.90
14934;DHT22;7560;51.364;12.384;2024-03-06T21:44:56;7.10;99.90
14934;DHT22;7560;51.364;12.384;2024-03-06T21:49:58;7.10;99.90
14934;DHT22;7560;51.364;12.384;2024-03-06T21:55:01;7.00;99.90
14934;DHT22;7560;51.364;12.384;2024-03-06T22:00:04;7.00;99.90
14934;DHT22;7560;51.364;12.384;2024-03-06T22:05:07;7.10;99.90
14934;DHT22;7560;51.364;12.384;2024-03-06T22:10:09;7.20;99.90
14934;DHT22;7560;51.364;12.384;2024-03-06T22:15:10;7.10;99.90
14934;DHT22;7560;51.364;12.384;2024-03-06T22:20:13;7.20;99.90
14934;DHT22;7560;51.364;12.384;2024-03-06T22:25:15;7.20;99.90
14934;DHT22;7560;51.364;12.384;2024-03-06T22:30:17;7.10;99.90
14934;DHT22;7560;51.364;12.384;2024-03-06T22:35:19;7.10;99.90
14934;DHT22;7560;51.364;12.384;2024-03-06T22:40:21;7.00;99.90
14934;DHT22;7560;51.364;12.384;2024-03-06T22:45:22;7.00;99.90
14934;DHT22;7560;51.364;12.384;2024-03-06T22:50:26;7.00;99.90
14934;DHT22;7560;51.364;12.384;2024-03-06T22:55:28;7.00;99.90
14934;DHT22;7560;51.364;12.384;2024-03-06T23:00:34;6.90;99.90
14934;DHT22;7560;51.364;12.384;2024-03-06T23:05:42;6.70;99.90
14934;DHT22;7560;51.364;12.384;2024-03-06T23:10:44;6.70;99.90
14934;DHT22;7560;51.364;12.384;2024-03-06T23:15:46;6.80;99.90
14934;DHT22;7560;51.364;12.384;2024-03-06T23:20:48;6.90;99.90
14934;DHT22;7560;51.364;12.384;2024-03-06T23:25:51;6.90;99.90
14934;DHT22;7560;51.364;12.384;2024-03-06T23:30:53;6.90;99.90
14934;DHT22;7560;51.364;12.384;2024-03-06T23:35:55;6.90;99.90
14934;DHT22;7560;51.364;12.384;2024-03-06T23:40:57;7.00;99.90
14934;DHT22;7560;51.364;12.384;2024-03-06T23:45:59;6.90;99.90
14934;DHT22;7560;51.364;12.384;2024-03-06T23:51:01;7.00;99.90
14934;DHT22;7560;51.364;12.384;2024-03-06T23:56:03;6.90;99.90
